Forest, Washington
Current Conditions -  °F | °C
As of 6:55 PM on Friday 21 Nov 2014 (Local Time) from KCLS Reporting Station
Light Rain Light Rain  
Wind Chill: 52°   Ceiling: 2200
Heat Index: 52°   Visibility: 7mi
Dew Point: 52°   Wind: 6mph
Humidity: 100%   Direction: 220°SW
Pressure: 29.43"   Gusts: NA
Location:  46.6561°N, 122.993°W
Report Text: KCLS 220255Z AUTO 22005KT 7SM -RA SCT015 BKN022 OVC030 11/11 A2943 RMK AO2
Loading
Personal Weather Stations






























Interactive Weather Map New forecast layout! Learn more

10-Day Weather Forecast

Advertisements
Track Severe Weather on mobile